Etusivu
METAR-TAF:

METAR-TAF

Lentoasemat :

Aniak, Alaska, Yhdysvallat

Leveyspiiri: 61-34-53N, Pituuspiiri: 159-32-34W, korkeus merenpinnasta: 27 m

Tämänhetkinen sää

Tämä raportti tehtiin 21 minuuttia sitten, kello 22.56 UTC
tyyntä
Lämpötila 19°C
Kosteus 52%
Ilmanpaine 1015 hPa
Näkyvyys: 16.1 km
Muutamia pilviä 4300 ft:n korkeudessa
Hajanaisia pilviä 6000 ft:n korkeudessa
Pilvistä 8000 ft:n korkeudessa

METAR: PANI 222256Z AUTO 00000KT 10SM FEW043 SCT060 OVC080 19/09 A2998 RMK AO2 SLP146 T01940094 $

Aika: 15:17 (23:17 UTC)


TAF: puuttuu

Säähavainnot ja -ennusteet yli 4000 lentoasemalta (METAR- ja TAF-raportit).

Käytössä olevat sääasemat on merkitty karttaan keltaisilla ja punaisilla pisteillä.

Aseta hiiri pisteen päälle nähdäksesi sääaseman nimen.

Klikkaa sitten nähdäksesi säähavainnot ja -ennusteet.

Kartan vaihtaminen: klikkaa mustalla rastilla varustettuja vihreitä pisteitä, niin voit zoomata sisään; viivalla varustettua vihreää pistettä, niin voit zoomata ulos tai vihreitä nuolia, niin pääset viereisille kartoille.


METAR-TAF: